Time;durP1;ratioP1;P1;durP2;ratioP2;P2;SDS_P1;SDS_P2;PMS_P1;PMS_P2;Temp;Humidity;BMP_temperature;BMP_pressure;BME280_temperature;BME280_humidity;BME280_pressure;Samples;Min_cycle;Max_cycle;Signal;HPM_P1;HPM_P2
2022/03/07 00:00:37;;;;;;;10.97;4.90;;;;;;;18.80;44.86;100861.84;5049658;28;20172;-60
2022/03/07 00:03:02;;;;;;;13.50;5.23;;;;;;;18.85;44.83;100860.72;5049923;28;20186;-60
2022/03/07 00:05:28;;;;;;;19.53;5.20;;;;;;;18.80;44.95;100863.84;5050062;28;20232;-60
2022/03/07 00:07:53;;;;;;;19.33;5.27;;;;;;;18.81;44.85;100862.69;5049880;28;20233;-60
2022/03/07 00:10:19;;;;;;;10.73;4.50;;;;;;;18.81;45.10;100866.34;5030399;28;20180;-60
2022/03/07 00:12:44;;;;;;;13.37;5.37;;;;;;;18.81;44.88;100859.81;5030241;28;20592;-60
2022/03/07 00:15:10;;;;;;;12.73;4.57;;;;;;;18.80;45.39;100858.13;5030734;28;20172;-60
2022/03/07 00:17:35;;;;;;;10.70;4.50;;;;;;;18.82;45.44;100861.47;5030351;28;20169;-60
2022/03/07 00:20:01;;;;;;;8.17;3.73;;;;;;;18.84;45.19;100859.91;5030041;28;20168;-60
2022/03/07 00:22:26;;;;;;;8.67;4.73;;;;;;;18.80;45.65;100858.13;5050077;28;20175;-60
2022/03/07 00:24:51;;;;;;;10.93;4.20;;;;;;;18.77;45.36;100856.84;5050034;28;20226;-60
2022/03/07 00:27:17;;;;;;;9.60;4.87;;;;;;;18.80;45.19;100861.84;5049997;28;20229;-60
2022/03/07 00:29:42;;;;;;;6.57;4.13;;;;;;;18.79;45.51;100871.63;5049051;28;20259;-60
2022/03/07 00:32:08;;;;;;;13.30;4.93;;;;;;;18.79;45.33;100863.03;5050263;28;20545;-60
2022/03/07 00:34:33;;;;;;;10.30;4.50;;;;;;;18.82;45.29;100865.13;5049744;28;20171;-60
2022/03/07 00:36:58;;;;;;;13.10;4.70;;;;;;;18.79;46.01;100862.19;5049919;28;20164;-60
2022/03/07 00:39:24;;;;;;;8.43;3.63;;;;;;;18.79;45.76;100863.03;5048958;28;20183;-60
2022/03/07 00:41:49;;;;;;;10.10;3.97;;;;;;;18.78;45.86;100861.38;5049927;28;20179;-60
2022/03/07 00:44:15;;;;;;;7.23;4.03;;;;;;;18.76;45.90;100865.81;5049354;28;20199;-60
2022/03/07 00:46:40;;;;;;;6.77;3.93;;;;;;;18.78;45.78;100867.09;5049406;28;20187;-61
2022/03/07 00:49:06;;;;;;;10.73;4.33;;;;;;;18.75;45.67;100862.09;5049224;28;20175;-61
2022/03/07 00:51:31;;;;;;;8.27;4.30;;;;;;;18.77;45.86;100871.13;5049595;28;21278;-60
2022/03/07 00:53:57;;;;;;;9.70;3.90;;;;;;;18.76;46.00;100869.47;5049453;28;20179;-60
2022/03/07 00:56:22;;;;;;;8.83;4.00;;;;;;;18.76;46.14;100877.25;5049146;28;20175;-60
2022/03/07 00:58:48;;;;;;;10.53;4.10;;;;;;;18.77;45.80;100870.31;5049534;28;20195;-60
2022/03/07 01:01:13;;;;;;;10.00;4.13;;;;;;;18.76;45.99;100875.19;5048999;28;20171;-61
2022/03/07 01:03:39;;;;;;;11.53;4.10;;;;;;;18.78;46.09;100871.97;5049747;28;20226;-60
2022/03/07 01:06:04;;;;;;;9.00;3.37;;;;;;;18.79;45.91;100874.47;5049413;28;20179;-60
2022/03/07 01:08:29;;;;;;;7.93;3.57;;;;;;;18.77;46.09;100874.00;5045207;28;20231;-60
2022/03/07 01:10:55;;;;;;;12.30;4.20;;;;;;;18.77;45.85;100870.31;5028807;28;20260;-60
2022/03/07 01:13:22;;;;;;;9.40;3.63;;;;;;;18.76;46.23;100871.53;5036514;28;20172;-60
2022/03/07 01:15:47;;;;;;;11.77;4.20;;;;;;;18.76;45.84;100868.66;5034723;28;20195;-61
2022/03/07 01:18:13;;;;;;;7.30;3.50;;;;;;;18.75;46.35;100870.69;5029302;28;21049;-60
2022/03/07 01:20:38;;;;;;;12.27;4.20;;;;;;;18.75;46.24;100869.84;5034783;28;20318;-61
2022/03/07 01:23:04;;;;;;;9.50;4.07;;;;;;;18.79;45.92;100865.06;5046294;28;20180;-60
2022/03/07 01:25:32;;;;;;;8.20;3.70;;;;;;;18.75;46.27;100866.97;5049008;28;20179;-60
2022/03/07 01:27:57;;;;;;;8.07;4.10;;;;;;;18.75;46.29;100864.13;5048973;28;20238;-60
2022/03/07 01:30:23;;;;;;;9.90;3.70;;;;;;;18.74;46.11;100866.19;5048966;28;21004;-60
2022/03/07 01:32:48;;;;;;;6.87;3.80;;;;;;;18.76;46.24;100860.91;5048812;28;20215;-60
2022/03/07 01:35:14;;;;;;;8.30;4.37;;;;;;;18.77;46.01;100856.84;5049297;28;20191;-60
2022/03/07 01:37:39;;;;;;;8.63;3.60;;;;;;;18.72;46.35;100857.13;5049240;28;20172;-60
2022/03/07 01:40:05;;;;;;;9.50;3.67;;;;;;;18.73;46.32;100855.94;5030231;28;20206;-61
2022/03/07 01:42:31;;;;;;;5.67;3.23;;;;;;;18.72;46.47;100851.38;5039866;28;20184;-60
2022/03/07 01:45:07;;;;;;;8.90;3.87;;;;;;;18.75;46.52;100847.81;5033161;28;20211;-61
2022/03/07 01:47:33;;;;;;;6.97;3.50;;;;;;;18.75;46.35;100852.69;5033140;28;20616;-60
2022/03/07 01:49:58;;;;;;;8.33;3.30;;;;;;;18.75;46.69;100844.94;5039813;28;20854;-60
2022/03/07 01:52:24;;;;;;;7.10;3.50;;;;;;;18.76;46.20;100843.75;5051243;28;20520;-60
2022/03/07 01:54:49;;;;;;;8.50;3.20;;;;;;;18.71;46.55;100846.88;5052738;28;20626;-60
2022/03/07 01:57:15;;;;;;;8.27;3.60;;;;;;;18.71;46.62;100838.28;5052676;28;20329;-60
2022/03/07 01:59:40;;;;;;;7.83;3.37;;;;;;;18.74;46.69;100834.72;5052570;28;20831;-61
2022/03/07 02:02:06;;;;;;;8.70;3.83;;;;;;;18.71;46.36;100837.50;5052637;28;20653;-61
2022/03/07 02:04:31;;;;;;;7.47;3.47;;;;;;;18.72;46.44;100828.50;5052629;28;20204;-60
2022/03/07 02:06:57;;;;;;;7.03;3.70;;;;;;;18.70;46.63;100835.78;5052487;28;20225;-61
2022/03/07 02:09:22;;;;;;;8.37;4.57;;;;;;;18.68;46.76;100833.34;5040830;28;20260;-60
2022/03/07 02:11:48;;;;;;;10.17;4.30;;;;;;;18.71;46.64;100831.75;5031230;28;20585;-60
2022/03/07 02:14:13;;;;;;;7.70;3.30;;;;;;;18.72;46.57;100828.50;5032516;28;20165;-60
2022/03/07 02:16:39;;;;;;;5.27;3.53;;;;;;;18.70;46.47;100824.34;5033000;28;20180;-60
2022/03/07 02:19:04;;;;;;;6.30;3.17;;;;;;;18.71;46.89;100824.00;5032245;28;20204;-60
2022/03/07 02:21:30;;;;;;;4.70;3.17;;;;;;;18.67;46.78;100820.22;5044310;28;20180;-60
2022/03/07 02:23:55;;;;;;;9.43;3.80;;;;;;;18.71;46.82;100815.41;5051832;28;20203;-61
2022/03/07 02:26:21;;;;;;;9.73;3.40;;;;;;;18.69;46.69;100817.81;5052325;28;20175;-60
2022/03/07 02:28:46;;;;;;;7.20;3.17;;;;;;;18.67;46.57;100811.63;5052319;28;20184;-60
2022/03/07 02:31:15;;;;;;;5.53;2.60;;;;;;;18.67;47.09;100811.63;5033875;28;20677;-60
2022/03/07 02:33:40;;;;;;;6.63;3.30;;;;;;;18.67;46.61;100810.81;5052325;28;20535;-61
2022/03/07 02:36:06;;;;;;;5.00;2.93;;;;;;;18.67;47.11;100808.75;5051969;28;20615;-60
2022/03/07 02:38:31;;;;;;;5.00;3.23;;;;;;;18.70;46.65;100815.78;5051765;28;20172;-60
2022/03/07 02:40:58;;;;;;;6.53;3.60;;;;;;;18.69;46.68;100806.38;5050952;28;20176;-60
2022/03/07 02:43:23;;;;;;;5.33;3.00;;;;;;;18.68;46.79;100810.44;5051033;28;20247;-60
2022/03/07 02:45:49;;;;;;;4.70;2.70;;;;;;;18.65;46.99;100811.19;5051872;28;20476;-60
2022/03/07 02:48:14;;;;;;;6.83;3.10;;;;;;;18.64;46.77;100802.97;5051966;28;20630;-60
2022/03/07 02:50:40;;;;;;;5.20;2.70;;;;;;;18.65;46.76;100802.59;5051283;28;20192;-60
2022/03/07 02:53:05;;;;;;;7.90;3.60;;;;;;;18.67;46.82;100805.91;5051221;28;20178;-60
2022/03/07 02:55:31;;;;;;;5.80;2.53;;;;;;;18.66;46.90;100804.25;5033335;28;20216;-60
2022/03/07 02:57:57;;;;;;;8.10;3.33;;;;;;;18.65;47.05;100805.47;5051682;28;20250;-60
2022/03/07 03:00:23;;;;;;;6.43;3.07;;;;;;;18.64;47.15;100806.66;5051061;28;20951;-60
2022/03/07 03:02:48;;;;;;;5.23;2.90;;;;;;;18.70;47.01;100812.91;5051447;28;20646;-60
2022/03/07 03:05:14;;;;;;;7.30;3.37;;;;;;;18.63;46.96;100807.88;5051386;28;20707;-60
2022/03/07 03:07:39;;;;;;;6.60;3.13;;;;;;;18.63;47.22;100813.59;5051399;28;20776;-60
2022/03/07 03:10:05;;;;;;;8.70;3.90;;;;;;;18.62;47.20;100803.31;5047071;28;20227;-60
2022/03/07 03:12:31;;;;;;;5.37;3.10;;;;;;;18.65;47.05;100811.19;5039126;28;20627;-61
2022/03/07 03:14:56;;;;;;;8.50;3.40;;;;;;;18.65;47.03;100811.19;5047160;28;20918;-60
2022/03/07 03:17:22;;;;;;;8.30;3.00;;;;;;;18.63;47.25;100807.88;5050519;28;20203;-60
2022/03/07 03:19:47;;;;;;;3.83;2.60;;;;;;;18.65;47.31;100808.31;5050690;28;20635;-60
2022/03/07 03:22:12;;;;;;;8.77;3.17;;;;;;;18.61;47.14;100812.31;5050877;28;20187;-60
2022/03/07 03:24:38;;;;;;;5.00;2.40;;;;;;;18.64;47.28;100808.69;5051338;28;20187;-60
2022/03/07 03:27:04;;;;;;;8.53;2.90;;;;;;;18.65;47.19;100819.75;5050112;28;20187;-60
2022/03/07 03:29:30;;;;;;;8.30;3.67;;;;;;;18.62;47.26;100823.34;5050677;28;20210;-60
2022/03/07 03:31:56;;;;;;;6.03;2.90;;;;;;;18.62;47.01;100829.06;5051005;28;20905;-60
2022/03/07 03:34:21;;;;;;;8.33;3.23;;;;;;;18.63;47.13;100827.88;5050962;28;20168;-61
2022/03/07 03:36:47;;;;;;;6.57;3.43;;;;;;;18.63;47.22;100830.75;5050036;28;20179;-60
2022/03/07 03:39:12;;;;;;;5.90;3.27;;;;;;;18.66;47.32;100841.44;5048737;28;20183;-60
2022/03/07 03:41:38;;;;;;;5.97;3.10;;;;;;;18.62;47.39;100840.50;5050484;28;20603;-60
2022/03/07 03:44:04;;;;;;;6.40;2.73;;;;;;;18.60;47.47;100842.91;5047455;28;20265;-60
2022/03/07 03:46:29;;;;;;;6.67;3.07;;;;;;;18.61;47.13;100841.72;5050824;28;20262;-60
2022/03/07 03:48:55;;;;;;;4.00;2.40;;;;;;;18.61;47.41;100841.72;5050191;28;20418;-60
2022/03/07 03:51:20;;;;;;;5.53;2.77;;;;;;;18.65;47.19;100842.63;5049886;28;20233;-60
2022/03/07 03:53:45;;;;;;;6.90;3.33;;;;;;;18.62;47.10;100839.69;5050485;28;20619;-60
2022/03/07 03:56:11;;;;;;;4.60;2.80;;;;;;;18.62;47.53;100845.41;5050947;28;20172;-61
2022/03/07 03:58:36;;;;;;;6.60;3.10;;;;;;;18.62;47.12;100843.38;5050313;28;20180;-60
2022/03/07 04:01:02;;;;;;;6.10;2.77;;;;;;;18.63;47.04;100847.91;5050054;28;20167;-61
2022/03/07 04:03:27;;;;;;;6.37;3.13;;;;;;;18.61;47.26;100843.75;5049571;28;20188;-60
2022/03/07 04:05:53;;;;;;;4.30;2.50;;;;;;;18.60;47.46;100851.50;5050025;28;20171;-61
2022/03/07 04:08:18;;;;;;;5.37;3.07;;;;;;;18.62;47.01;100843.38;5046422;28;20227;-61
2022/03/07 04:10:43;;;;;;;5.63;2.50;;;;;;;18.62;47.27;100854.00;5049695;28;20619;-60
2022/03/07 04:13:09;;;;;;;4.20;2.50;;;;;;;18.62;47.34;100846.22;5050488;28;20201;-60
2022/03/07 04:15:38;;;;;;;6.50;2.50;;;;;;;18.65;47.32;100856.94;5050377;28;20179;-60
2022/03/07 04:18:05;;;;;;;4.83;2.63;;;;;;;18.62;47.33;100846.22;5049937;28;20308;-61
2022/03/07 04:20:30;;;;;;;5.63;2.90;;;;;;;18.59;47.30;100846.97;5049245;28;20426;-60
2022/03/07 04:22:55;;;;;;;7.40;2.77;;;;;;;18.58;47.34;100851.03;5049874;28;20528;-61
2022/03/07 04:25:21;;;;;;;6.43;2.60;;;;;;;18.58;47.16;100851.03;5050044;28;20682;-61
2022/03/07 04:27:46;;;;;;;5.50;2.90;;;;;;;18.58;47.31;100856.75;5049827;28;20549;-61
2022/03/07 04:30:12;;;;;;;4.33;2.80;;;;;;;18.60;47.62;100856.38;5049814;28;20230;-60
2022/03/07 04:32:38;;;;;;;5.53;2.70;;;;;;;18.61;47.15;100856.00;5050115;28;20171;-61
2022/03/07 04:35:05;;;;;;;5.30;2.73;;;;;;;18.60;47.09;100857.22;5049744;28;20163;-61
2022/03/07 04:37:32;;;;;;;3.83;2.43;;;;;;;18.58;47.29;100862.47;5049967;28;20885;-60
2022/03/07 04:39:58;;;;;;;6.57;2.63;;;;;;;18.59;47.41;100864.13;5031897;28;20418;-60
2022/03/07 04:42:23;;;;;;;4.10;2.20;;;;;;;18.59;47.24;100869.00;5050015;28;20471;-61
2022/03/07 04:44:49;;;;;;;5.43;2.83;;;;;;;18.58;47.49;100868.19;5049859;28;20454;-60
2022/03/07 04:47:14;;;;;;;3.97;2.70;;;;;;;18.60;47.25;100870.66;5049347;28;20175;-61
2022/03/07 04:49:40;;;;;;;5.63;2.73;;;;;;;18.61;47.29;100869.50;5049190;28;20877;-61
2022/03/07 04:52:05;;;;;;;3.90;2.47;;;;;;;18.57;47.46;100875.09;5049817;28;20201;-60
2022/03/07 04:54:31;;;;;;;5.60;2.70;;;;;;;18.57;47.33;100880.81;5049637;28;20172;-60
2022/03/07 04:56:56;;;;;;;4.60;2.90;;;;;;;18.61;47.44;100878.88;5049751;28;20164;-60
2022/03/07 04:59:22;;;;;;;6.50;2.60;;;;;;;18.55;47.16;100874.63;5049323;28;20577;-60
2022/03/07 05:01:47;;;;;;;4.63;2.37;;;;;;;18.62;47.34;100874.81;5049371;28;20706;-60
2022/03/07 05:04:13;;;;;;;4.43;2.63;;;;;;;18.59;47.46;100875.56;5048079;28;20211;-61
2022/03/07 05:06:38;;;;;;;5.37;3.00;;;;;;;18.60;47.26;100882.94;5048473;28;20176;-61
2022/03/07 05:09:03;;;;;;;6.83;2.70;;;;;;;18.60;47.43;100885.81;5045338;28;20216;-60
2022/03/07 05:11:29;;;;;;;4.70;2.83;;;;;;;18.56;47.43;100892.66;5049880;28;20175;-60
2022/03/07 05:13:54;;;;;;;4.30;2.83;;;;;;;18.59;47.26;100892.72;5049442;28;20313;-60
2022/03/07 05:16:20;;;;;;;4.73;2.83;;;;;;;18.58;47.15;100888.22;5043317;28;20175;-60
2022/03/07 05:18:45;;;;;;;4.10;2.40;;;;;;;18.58;47.35;100891.06;5033396;28;20176;-60
2022/03/07 05:21:11;;;;;;;4.60;2.73;;;;;;;18.56;47.55;100893.44;5037145;28;20179;-60
2022/03/07 05:23:36;;;;;;;5.13;2.60;;;;;;;18.57;47.36;100892.25;5033485;28;20188;-60
2022/03/07 05:26:02;;;;;;;5.03;2.93;;;;;;;18.57;47.38;100900.81;5033612;28;20222;-60
2022/03/07 05:28:27;;;;;;;4.40;2.83;;;;;;;18.57;47.56;100900.81;5033430;28;20183;-60
2022/03/07 05:30:52;;;;;;;4.30;2.40;;;;;;;18.59;47.49;100892.72;5033487;28;20165;-60
2022/03/07 05:33:18;;;;;;;5.07;2.53;;;;;;;18.57;47.15;100895.09;5033310;28;20168;-60
2022/03/07 05:35:43;;;;;;;4.80;2.47;;;;;;;18.59;47.56;100898.44;5033733;28;20191;-60
2022/03/07 05:38:09;;;;;;;5.17;2.30;;;;;;;18.57;47.60;100906.53;5033993;28;20219;-60
2022/03/07 05:40:34;;;;;;;4.87;2.70;;;;;;;18.59;47.49;100906.19;5033090;28;20636;-60
2022/03/07 05:43:00;;;;;;;4.20;2.43;;;;;;;18.57;47.38;100905.75;5051033;28;20211;-60
2022/03/07 05:45:25;;;;;;;3.70;2.20;;;;;;;18.55;47.28;100908.94;5053028;28;20241;-60
2022/03/07 05:47:51;;;;;;;3.70;2.20;;;;;;;18.57;47.45;100905.75;5053041;28;20179;-60
2022/03/07 05:50:16;;;;;;;3.77;2.30;;;;;;;18.59;47.38;100909.03;5052436;28;20180;-60
2022/03/07 05:52:42;;;;;;;5.00;2.70;;;;;;;18.60;47.23;100910.69;5048845;28;20172;-60
2022/03/07 05:55:08;;;;;;;6.03;2.60;;;;;;;18.61;47.32;100913.19;5052950;28;20176;-61
2022/03/07 05:57:33;;;;;;;4.23;2.23;;;;;;;18.60;47.57;100907.84;5053092;28;20833;-60
2022/03/07 05:59:59;;;;;;;4.60;2.43;;;;;;;18.61;47.07;100918.09;5052480;28;20213;-60
2022/03/07 06:02:24;;;;;;;3.90;2.70;;;;;;;18.62;47.36;100914.84;5052432;28;20171;-60
2022/03/07 06:04:50;;;;;;;3.80;2.27;;;;;;;18.59;47.47;100915.59;5052313;28;20253;-61
2022/03/07 06:07:15;;;;;;;4.70;2.50;;;;;;;18.60;47.35;100927.88;5052838;28;20168;-61
2022/03/07 06:09:41;;;;;;;4.70;2.70;;;;;;;18.59;47.36;100929.91;5048664;28;20706;-60
2022/03/07 06:12:07;;;;;;;4.33;2.67;;;;;;;18.58;47.14;100922.53;5052602;28;20175;-60
2022/03/07 06:14:32;;;;;;;3.90;2.13;;;;;;;18.59;47.27;100932.78;5052396;28;20269;-61
2022/03/07 06:16:58;;;;;;;3.80;2.20;;;;;;;18.59;47.10;100927.03;5052225;28;20410;-61
2022/03/07 06:19:23;;;;;;;4.30;2.00;;;;;;;18.61;47.06;100929.53;5052234;28;20178;-61
2022/03/07 06:21:48;;;;;;;3.67;2.10;;;;;;;18.57;47.44;100920.84;5052075;28;20736;-63
2022/03/07 06:24:14;;;;;;;4.03;2.13;;;;;;;18.59;47.43;100931.94;5050986;28;20207;-60
2022/03/07 06:26:39;;;;;;;4.97;2.27;;;;;;;18.57;47.20;100932.28;5033778;28;20164;-62
2022/03/07 06:29:06;;;;;;;4.40;2.57;;;;;;;18.57;47.25;100926.56;5051742;28;20172;-61
2022/03/07 06:31:31;;;;;;;5.17;2.30;;;;;;;18.62;47.31;100939.78;5034203;28;20176;-61
2022/03/07 06:33:57;;;;;;;5.23;2.67;;;;;;;18.60;47.02;100931.56;5052035;28;20476;-60
2022/03/07 06:36:22;;;;;;;3.90;2.37;;;;;;;18.59;47.39;100934.78;5052517;28;20174;-60
2022/03/07 06:38:48;;;;;;;3.30;2.30;;;;;;;18.59;47.39;100941.34;5051824;28;20175;-60
2022/03/07 06:41:13;;;;;;;4.90;2.30;;;;;;;18.59;47.19;100941.34;5051742;28;20187;-61
2022/03/07 06:43:39;;;;;;;3.63;2.17;;;;;;;18.58;47.45;100931.13;5052007;28;20187;-61
2022/03/07 06:46:04;;;;;;;3.50;1.93;;;;;;;18.61;47.38;100936.09;5051772;28;20229;-61
2022/03/07 06:48:30;;;;;;;4.33;2.60;;;;;;;18.59;47.57;100935.63;5052029;28;20226;-60
2022/03/07 06:50:55;;;;;;;4.17;2.20;;;;;;;18.59;47.84;100932.78;5051297;28;20183;-61
2022/03/07 06:53:21;;;;;;;3.40;2.13;;;;;;;18.63;47.17;100922.25;5051318;28;20570;-60
2022/03/07 06:55:46;;;;;;;3.60;2.13;;;;;;;18.60;47.07;100940.16;5051645;28;20179;-61
2022/03/07 06:58:12;;;;;;;3.20;2.03;;;;;;;18.61;47.32;100935.28;5051929;28;20276;-61
2022/03/07 07:00:37;;;;;;;3.10;2.03;;;;;;;18.61;47.26;100938.94;5051476;28;20176;-60
2022/03/07 07:03:02;;;;;;;3.10;1.87;;;;;;;18.60;47.41;100939.31;5050966;28;20182;-61
2022/03/07 07:05:28;;;;;;;4.27;2.37;;;;;;;18.65;47.41;100939.88;5051342;28;20294;-60
2022/03/07 07:07:54;;;;;;;4.27;2.27;;;;;;;18.65;47.14;100934.16;5042795;28;20187;-60
2022/03/07 07:10:19;;;;;;;3.23;2.07;;;;;;;18.64;46.94;100935.34;5048567;28;20414;-60
2022/03/07 07:12:47;;;;;;;4.67;2.30;;;;;;;18.63;47.13;100939.44;5051411;28;20202;-60
2022/03/07 07:15:12;;;;;;;3.53;2.17;;;;;;;18.62;47.47;100948.38;5051762;28;20180;-60
2022/03/07 07:17:37;;;;;;;3.37;1.70;;;;;;;18.61;47.29;100943.84;5051684;28;20967;-60
2022/03/07 07:20:04;;;;;;;3.50;2.20;;;;;;;18.63;47.09;100948.00;5050828;28;20229;-61
2022/03/07 07:22:30;;;;;;;3.83;2.20;;;;;;;18.62;47.04;100942.66;5051571;28;20523;-61
2022/03/07 07:24:55;;;;;;;2.80;2.00;;;;;;;18.61;47.45;100950.38;5022986;28;20477;-61
2022/03/07 07:27:21;;;;;;;3.20;2.00;;;;;;;18.63;47.44;100950.88;5031077;28;20176;-60
2022/03/07 07:29:46;;;;;;;3.90;2.13;;;;;;;18.64;46.98;100952.53;5030741;28;20191;-61
2022/03/07 07:32:12;;;;;;;3.13;2.00;;;;;;;18.61;47.21;100952.44;5030855;28;20254;-62
2022/03/07 07:34:37;;;;;;;3.40;2.10;;;;;;;18.59;47.16;100955.66;5039394;28;20172;-60
2022/03/07 07:37:03;;;;;;;4.10;1.97;;;;;;;18.60;47.18;100953.59;5050318;28;20171;-61
2022/03/07 07:39:28;;;;;;;4.30;2.10;;;;;;;18.62;47.17;100954.91;5049781;28;20237;-61
2022/03/07 07:41:55;;;;;;;3.70;2.50;;;;;;;18.62;47.01;100959.81;5049571;28;20225;-60
2022/03/07 07:44:21;;;;;;;3.40;1.87;;;;;;;18.62;46.97;100959.81;5050545;28;20238;-60
2022/03/07 07:46:46;;;;;;;3.70;2.17;;;;;;;18.62;47.07;100960.63;5044719;28;20461;-60
2022/03/07 07:49:12;;;;;;;4.07;2.37;;;;;;;18.61;47.17;100967.53;5036701;28;20285;-60
2022/03/07 07:51:37;;;;;;;3.90;1.90;;;;;;;18.64;47.24;100968.84;5050954;28;20568;-60
2022/03/07 07:54:03;;;;;;;7.63;2.00;;;;;;;18.63;47.35;100978.63;5050469;28;20180;-61
2022/03/07 07:56:28;;;;;;;2.60;1.90;;;;;;;18.64;47.43;100978.25;5044208;28;20230;-60
2022/03/07 07:58:54;;;;;;;3.03;1.97;;;;;;;18.62;47.32;100983.50;5031416;28;20177;-60
2022/03/07 08:01:19;;;;;;;3.20;2.00;;;;;;;18.63;47.06;100987.19;5050037;28;20249;-60
2022/03/07 08:03:45;;;;;;;6.13;2.47;;;;;;;18.61;47.45;100981.84;5050316;28;21030;-60
2022/03/07 08:06:10;;;;;;;5.23;2.60;;;;;;;18.61;47.29;100986.75;5050635;28;20176;-60
2022/03/07 08:08:36;;;;;;;4.20;2.23;;;;;;;18.63;47.32;100992.91;5049754;28;20235;-61
2022/03/07 08:11:01;;;;;;;3.60;2.10;;;;;;;18.62;47.33;100992.06;5049974;28;21198;-60
2022/03/07 08:13:27;;;;;;;2.93;1.93;;;;;;;18.63;47.38;100990.91;5049416;28;20329;-61
2022/03/07 08:15:52;;;;;;;7.23;2.13;;;;;;;18.64;47.08;100988.84;5050122;28;20176;-60
2022/03/07 08:18:18;;;;;;;3.13;2.20;;;;;;;18.64;46.95;100986.84;5049992;28;20186;-60
2022/03/07 08:20:43;;;;;;;4.30;2.00;;;;;;;18.65;47.35;100984.78;5049624;28;20187;-60
2022/03/07 08:23:09;;;;;;;3.90;1.90;;;;;;;18.64;47.09;100981.13;5050291;28;20225;-60
2022/03/07 08:25:34;;;;;;;3.30;2.23;;;;;;;18.63;47.07;100979.47;5049978;28;20242;-60
2022/03/07 08:28:00;;;;;;;3.10;1.70;;;;;;;18.66;47.55;100989.34;5050057;28;20618;-60
2022/03/07 08:30:26;;;;;;;3.50;1.90;;;;;;;18.65;47.09;100991.34;5049972;28;20179;-60
2022/03/07 08:32:52;;;;;;;3.17;1.70;;;;;;;18.64;47.21;100986.00;5049910;28;20647;-62
2022/03/07 08:35:17;;;;;;;3.27;2.03;;;;;;;18.65;47.32;100996.22;5031906;28;20476;-61
2022/03/07 08:37:45;;;;;;;3.60;2.27;;;;;;;18.64;47.23;101003.16;5049651;28;20245;-60
2022/03/07 08:40:11;;;;;;;4.40;2.20;;;;;;;18.63;47.19;101002.34;5048410;28;20190;-60
2022/03/07 08:42:36;;;;;;;2.73;1.90;;;;;;;18.64;47.14;100997.44;5031417;28;20414;-60
2022/03/07 08:45:03;;;;;;;3.70;2.07;;;;;;;18.67;47.06;101000.38;5049791;28;20215;-61
2022/03/07 08:47:28;;;;;;;3.57;2.13;;;;;;;18.65;47.07;100997.06;5049574;28;20204;-60
2022/03/07 08:49:55;;;;;;;3.23;1.80;;;;;;;18.62;47.31;100997.78;5049098;28;20418;-60
2022/03/07 08:52:20;;;;;;;3.10;1.90;;;;;;;18.64;47.22;100992.56;5049375;28;20215;-60
2022/03/07 08:54:49;;;;;;;3.20;2.07;;;;;;;18.64;47.32;100991.72;5049416;28;20448;-61
2022/03/07 08:57:14;;;;;;;3.90;2.27;;;;;;;18.66;47.22;100995.88;5049559;28;20183;-62
2022/03/07 08:59:40;;;;;;;4.30;1.70;;;;;;;18.64;47.03;101000.28;5047989;28;20909;-60
2022/03/07 09:02:05;;;;;;;4.17;2.13;;;;;;;18.64;47.14;101003.16;5048598;28;20548;-60
2022/03/07 09:04:31;;;;;;;5.50;1.83;;;;;;;18.66;47.06;100998.72;5049418;28;20211;-60
2022/03/07 09:06:56;;;;;;;4.17;1.90;;;;;;;18.67;47.10;100997.53;5049161;28;20187;-60
2022/03/07 09:09:22;;;;;;;2.43;1.73;;;;;;;18.69;47.34;100989.44;5045707;28;20226;-60
2022/03/07 09:11:48;;;;;;;2.80;1.87;;;;;;;18.66;47.11;100993.00;5049031;28;20202;-60
2022/03/07 09:14:13;;;;;;;2.73;1.70;;;;;;;18.64;46.90;100992.56;5049457;28;20285;-61
2022/03/07 09:16:39;;;;;;;3.10;1.80;;;;;;;18.67;47.40;100996.72;5046010;28;20545;-60
2022/03/07 09:19:04;;;;;;;5.73;1.97;;;;;;;18.69;47.08;101000.88;5048088;28;20543;-60
2022/03/07 09:21:30;;;;;;;2.80;1.90;;;;;;;18.70;46.97;100995.97;5048609;28;20176;-60
2022/03/07 09:23:55;;;;;;;2.93;1.90;;;;;;;18.68;46.99;100987.78;5047322;28;20207;-60
2022/03/07 09:26:20;;;;;;;3.90;2.23;;;;;;;18.68;47.48;100993.50;5029201;28;20172;-60
2022/03/07 09:28:49;;;;;;;4.03;1.97;;;;;;;18.65;47.18;100988.50;5046010;28;20202;-60
2022/03/07 09:31:14;;;;;;;3.10;1.70;;;;;;;18.67;47.12;100991.81;5048657;28;20182;-60
2022/03/07 09:33:39;;;;;;;2.53;1.63;;;;;;;18.68;46.90;100987.78;5049280;28;20422;-61
2022/03/07 09:36:05;;;;;;;3.20;1.77;;;;;;;18.68;47.18;100999.22;5048707;28;20548;-60
2022/03/07 09:38:31;;;;;;;3.90;2.00;;;;;;;18.69;47.13;101002.91;5048773;28;20258;-60
2022/03/07 09:40:57;;;;;;;2.50;1.80;;;;;;;18.73;46.86;101007.53;5048664;28;20179;-60
2022/03/07 09:43:23;;;;;;;3.43;2.23;;;;;;;18.70;46.94;101002.53;5048517;28;20267;-60
2022/03/07 09:45:49;;;;;;;3.27;2.03;;;;;;;18.68;47.11;100993.50;5049198;28;20812;-60
2022/03/07 09:48:14;;;;;;;3.43;1.80;;;;;;;18.69;46.90;100995.16;5046902;28;20684;-61
2022/03/07 09:50:40;;;;;;;2.90;1.80;;;;;;;18.67;47.01;101006.09;5034669;28;20537;-60
2022/03/07 09:53:06;;;;;;;2.90;1.97;;;;;;;18.67;47.41;100997.53;5048331;28;20230;-60
2022/03/07 09:55:32;;;;;;;3.10;1.90;;;;;;;18.70;47.18;101007.41;5048976;28;20449;-61
2022/03/07 09:57:58;;;;;;;6.60;2.37;;;;;;;18.69;47.29;101006.59;5048860;28;20180;-60
2022/03/07 10:00:24;;;;;;;3.00;1.80;;;;;;;18.75;46.88;101008.00;5048227;28;20237;-60
2022/03/07 10:02:56;;;;;;;2.73;1.63;;;;;;;18.71;47.24;101009.09;5051663;28;20422;-60
2022/03/07 10:05:26;;;;;;;2.60;1.73;;;;;;;18.76;46.64;101003.13;5052519;28;20728;-61
2022/03/07 10:07:52;;;;;;;3.77;2.00;;;;;;;18.73;47.10;101001.81;5050158;28;20476;-60
2022/03/07 10:10:20;;;;;;;3.53;1.90;;;;;;;18.73;47.09;101007.53;5030943;28;20910;-60
2022/03/07 10:12:47;;;;;;;3.50;2.10;;;;;;;18.77;47.10;101002.72;5032348;28;20200;-60
2022/03/07 10:15:19;;;;;;;3.20;1.73;;;;;;;18.69;47.33;101006.59;5033131;28;20889;-60
2022/03/07 10:17:50;;;;;;;4.70;1.97;;;;;;;18.72;46.82;101000.13;5032249;28;20450;-60
2022/03/07 10:20:19;;;;;;;4.30;2.33;;;;;;;18.73;46.81;100998.94;5034291;28;20783;-60
2022/03/07 10:22:57;;;;;;;2.90;1.77;;;;;;;18.71;46.95;101007.06;5050622;28;20475;-60
2022/03/07 10:25:25;;;;;;;2.80;2.03;;;;;;;18.71;47.02;101000.53;5052177;28;20988;-60
2022/03/07 10:27:51;;;;;;;3.33;1.83;;;;;;;18.75;46.79;100998.56;5052169;28;20873;-60
2022/03/07 10:30:21;;;;;;;2.37;1.50;;;;;;;18.69;47.15;101000.88;5033553;28;20445;-60
2022/03/07 10:33:05;;;;;;;3.27;1.60;;;;;;;18.72;47.22;101002.97;5051768;28;20433;-61
2022/03/07 10:35:48;;;;;;;2.77;1.77;;;;;;;18.74;47.15;101000.59;5050839;28;20417;-61
2022/03/07 10:38:15;;;;;;;3.60;1.80;;;;;;;18.74;47.04;100994.88;5051780;28;20844;-60
2022/03/07 10:40:42;;;;;;;2.87;1.57;;;;;;;18.73;46.77;100993.22;5051540;28;20426;-60
2022/03/07 10:43:08;;;;;;;3.87;1.90;;;;;;;18.72;47.04;100988.69;5052271;28;20830;-60
2022/03/07 10:45:50;;;;;;;3.90;2.00;;;;;;;18.74;46.94;100992.03;5052273;28;20488;-60
2022/03/07 10:48:16;;;;;;;4.33;2.07;;;;;;;18.73;47.07;100996.09;5051793;28;20168;-60
2022/03/07 10:50:53;;;;;;;2.83;1.50;;;;;;;18.75;46.94;100996.53;5051331;28;20457;-60
2022/03/07 10:53:18;;;;;;;3.43;1.93;;;;;;;18.73;47.16;100996.09;5051516;28;20418;-61
2022/03/07 10:55:54;;;;;;;3.80;1.83;;;;;;;18.74;46.97;100996.91;5051767;28;20495;-60
2022/03/07 10:58:20;;;;;;;7.10;2.43;;;;;;;18.72;47.36;100988.69;5051527;28;20943;-60
2022/03/07 11:01:01;;;;;;;3.20;1.70;;;;;;;18.73;47.62;100990.38;5050736;28;20422;-60
2022/03/07 11:03:29;;;;;;;2.70;1.70;;;;;;;18.74;47.11;100980.59;5050801;28;20446;-60
2022/03/07 11:05:55;;;;;;;4.20;2.10;;;;;;;18.78;46.75;100981.53;5051577;28;20496;-61
2022/03/07 11:08:20;;;;;;;5.30;2.00;;;;;;;18.81;46.71;100972.19;5051510;28;20509;-60
2022/03/07 11:10:53;;;;;;;2.50;1.67;;;;;;;18.77;47.19;100976.97;5050619;28;20175;-60
2022/03/07 11:13:25;;;;;;;4.97;1.97;;;;;;;18.77;46.93;100974.13;5047803;28;20179;-60
2022/03/07 11:15:51;;;;;;;2.03;1.40;;;;;;;18.82;47.05;100970.19;5049907;28;20403;-60
2022/03/07 11:18:16;;;;;;;5.57;2.10;;;;;;;18.80;46.88;100966.84;5047992;28;20500;-60